sensor_id;sensor_type;location;lat;lon;timestamp;P1;durP1;ratioP1;P2;durP2;ratioP2
76447;SDS011;65284;51.040;13.722;2023-11-19T00:01:24;16.23;;;7.63;;
76447;SDS011;65284;51.040;13.722;2023-11-19T00:03:51;16.90;;;8.38;;
76447;SDS011;65284;51.040;13.722;2023-11-19T00:06:18;16.60;;;8.65;;
76447;SDS011;65284;51.040;13.722;2023-11-19T00:08:44;16.67;;;8.80;;
76447;SDS011;65284;51.040;13.722;2023-11-19T00:11:11;18.45;;;9.30;;
76447;SDS011;65284;51.040;13.722;2023-11-19T00:13:41;18.45;;;9.00;;
76447;SDS011;65284;51.040;13.722;2023-11-19T00:16:08;17.98;;;8.98;;
76447;SDS011;65284;51.040;13.722;2023-11-19T00:18:36;17.17;;;8.48;;
76447;SDS011;65284;51.040;13.722;2023-11-19T00:21:02;18.23;;;8.95;;
76447;SDS011;65284;51.040;13.722;2023-11-19T00:23:29;17.92;;;8.63;;
76447;SDS011;65284;51.040;13.722;2023-11-19T00:25:55;17.80;;;8.80;;
76447;SDS011;65284;51.040;13.722;2023-11-19T00:28:21;18.80;;;8.65;;
76447;SDS011;65284;51.040;13.722;2023-11-19T00:30:48;17.00;;;9.02;;
76447;SDS011;65284;51.040;13.722;2023-11-19T00:33:15;16.77;;;9.18;;
76447;SDS011;65284;51.040;13.722;2023-11-19T00:35:42;20.77;;;8.77;;
76447;SDS011;65284;51.040;13.722;2023-11-19T00:38:08;18.25;;;9.23;;
76447;SDS011;65284;51.040;13.722;2023-11-19T00:40:34;19.83;;;9.25;;
76447;SDS011;65284;51.040;13.722;2023-11-19T00:43:01;18.38;;;9.32;;
76447;SDS011;65284;51.040;13.722;2023-11-19T00:45:27;17.58;;;8.95;;
76447;SDS011;65284;51.040;13.722;2023-11-19T00:47:54;16.60;;;8.60;;
76447;SDS011;65284;51.040;13.722;2023-11-19T00:50:20;17.38;;;9.38;;
76447;SDS011;65284;51.040;13.722;2023-11-19T00:52:47;19.08;;;9.35;;
76447;SDS011;65284;51.040;13.722;2023-11-19T00:55:13;15.80;;;8.80;;
76447;SDS011;65284;51.040;13.722;2023-11-19T00:57:40;15.98;;;8.40;;
76447;SDS011;65284;51.040;13.722;2023-11-19T01:00:07;16.85;;;8.70;;
76447;SDS011;65284;51.040;13.722;2023-11-19T01:02:41;17.00;;;8.65;;
76447;SDS011;65284;51.040;13.722;2023-11-19T01:05:08;16.67;;;8.65;;
76447;SDS011;65284;51.040;13.722;2023-11-19T01:07:35;17.83;;;9.00;;
76447;SDS011;65284;51.040;13.722;2023-11-19T01:10:01;16.10;;;8.40;;
76447;SDS011;65284;51.040;13.722;2023-11-19T01:12:29;16.58;;;8.63;;
76447;SDS011;65284;51.040;13.722;2023-11-19T01:14:57;14.23;;;7.75;;
76447;SDS011;65284;51.040;13.722;2023-11-19T01:17:24;15.43;;;8.02;;
76447;SDS011;65284;51.040;13.722;2023-11-19T01:19:50;14.45;;;7.68;;
76447;SDS011;65284;51.040;13.722;2023-11-19T01:22:17;15.75;;;8.15;;
76447;SDS011;65284;51.040;13.722;2023-11-19T01:24:45;14.98;;;7.63;;
76447;SDS011;65284;51.040;13.722;2023-11-19T01:27:11;17.63;;;7.95;;
76447;SDS011;65284;51.040;13.722;2023-11-19T01:29:38;15.07;;;7.80;;
76447;SDS011;65284;51.040;13.722;2023-11-19T01:32:04;14.23;;;7.85;;
76447;SDS011;65284;51.040;13.722;2023-11-19T01:34:31;14.30;;;7.10;;
76447;SDS011;65284;51.040;13.722;2023-11-19T01:36:57;13.25;;;6.85;;
76447;SDS011;65284;51.040;13.722;2023-11-19T01:39:24;13.95;;;7.38;;
76447;SDS011;65284;51.040;13.722;2023-11-19T01:41:50;13.02;;;6.90;;
76447;SDS011;65284;51.040;13.722;2023-11-19T01:44:16;12.80;;;6.97;;
76447;SDS011;65284;51.040;13.722;2023-11-19T01:46:44;13.05;;;6.72;;
76447;SDS011;65284;51.040;13.722;2023-11-19T01:49:15;12.48;;;6.50;;
76447;SDS011;65284;51.040;13.722;2023-11-19T01:51:44;14.23;;;7.22;;
76447;SDS011;65284;51.040;13.722;2023-11-19T01:54:10;12.63;;;6.43;;
76447;SDS011;65284;51.040;13.722;2023-11-19T01:56:38;12.95;;;6.50;;
76447;SDS011;65284;51.040;13.722;2023-11-19T01:59:07;11.90;;;5.95;;
76447;SDS011;65284;51.040;13.722;2023-11-19T02:01:35;11.88;;;6.00;;
76447;SDS011;65284;51.040;13.722;2023-11-19T02:04:06;12.38;;;6.45;;
76447;SDS011;65284;51.040;13.722;2023-11-19T02:06:34;11.13;;;5.97;;
76447;SDS011;65284;51.040;13.722;2023-11-19T02:09:06;12.57;;;6.22;;
76447;SDS011;65284;51.040;13.722;2023-11-19T02:11:34;15.00;;;7.40;;
76447;SDS011;65284;51.040;13.722;2023-11-19T02:14:01;11.50;;;5.60;;
76447;SDS011;65284;51.040;13.722;2023-11-19T02:16:29;9.95;;;5.40;;
76447;SDS011;65284;51.040;13.722;2023-11-19T02:18:56;10.88;;;5.53;;
76447;SDS011;65284;51.040;13.722;2023-11-19T02:21:23;9.73;;;5.28;;
76447;SDS011;65284;51.040;13.722;2023-11-19T02:23:49;9.65;;;5.18;;
76447;SDS011;65284;51.040;13.722;2023-11-19T02:26:28;9.23;;;4.75;;
76447;SDS011;65284;51.040;13.722;2023-11-19T02:29:05;8.20;;;4.22;;
76447;SDS011;65284;51.040;13.722;2023-11-19T02:31:34;7.93;;;4.00;;
76447;SDS011;65284;51.040;13.722;2023-11-19T02:34:01;8.18;;;4.22;;
76447;SDS011;65284;51.040;13.722;2023-11-19T02:36:29;7.97;;;3.97;;
76447;SDS011;65284;51.040;13.722;2023-11-19T02:38:55;6.20;;;3.20;;
76447;SDS011;65284;51.040;13.722;2023-11-19T02:41:21;5.75;;;3.10;;
76447;SDS011;65284;51.040;13.722;2023-11-19T02:43:48;5.88;;;2.47;;
76447;SDS011;65284;51.040;13.722;2023-11-19T02:46:14;5.38;;;2.70;;
76447;SDS011;65284;51.040;13.722;2023-11-19T02:48:43;5.13;;;2.42;;
76447;SDS011;65284;51.040;13.722;2023-11-19T02:51:11;5.85;;;2.50;;
76447;SDS011;65284;51.040;13.722;2023-11-19T02:53:38;4.60;;;2.30;;
76447;SDS011;65284;51.040;13.722;2023-11-19T02:56:06;4.95;;;2.10;;
76447;SDS011;65284;51.040;13.722;2023-11-19T02:58:46;3.97;;;2.20;;
76447;SDS011;65284;51.040;13.722;2023-11-19T03:01:13;4.45;;;2.03;;
76447;SDS011;65284;51.040;13.722;2023-11-19T03:03:49;4.80;;;2.20;;
76447;SDS011;65284;51.040;13.722;2023-11-19T03:06:21;4.22;;;2.00;;
76447;SDS011;65284;51.040;13.722;2023-11-19T03:08:48;5.28;;;2.08;;
76447;SDS011;65284;51.040;13.722;2023-11-19T03:11:15;4.85;;;2.20;;
76447;SDS011;65284;51.040;13.722;2023-11-19T03:13:41;3.85;;;2.00;;
76447;SDS011;65284;51.040;13.722;2023-11-19T03:16:08;4.57;;;2.22;;
76447;SDS011;65284;51.040;13.722;2023-11-19T03:18:34;4.25;;;2.13;;
76447;SDS011;65284;51.040;13.722;2023-11-19T03:21:01;4.20;;;2.10;;
76447;SDS011;65284;51.040;13.722;2023-11-19T03:23:27;3.45;;;2.00;;
76447;SDS011;65284;51.040;13.722;2023-11-19T03:25:54;4.47;;;1.98;;
76447;SDS011;65284;51.040;13.722;2023-11-19T03:28:21;4.85;;;2.30;;
76447;SDS011;65284;51.040;13.722;2023-11-19T03:30:47;5.30;;;2.10;;
76447;SDS011;65284;51.040;13.722;2023-11-19T03:33:14;4.50;;;2.30;;
76447;SDS011;65284;51.040;13.722;2023-11-19T03:35:40;4.45;;;2.15;;
76447;SDS011;65284;51.040;13.722;2023-11-19T03:38:07;4.25;;;2.05;;
76447;SDS011;65284;51.040;13.722;2023-11-19T03:40:33;4.00;;;1.90;;
76447;SDS011;65284;51.040;13.722;2023-11-19T03:43:00;4.50;;;1.95;;
76447;SDS011;65284;51.040;13.722;2023-11-19T03:45:26;3.80;;;2.00;;
76447;SDS011;65284;51.040;13.722;2023-11-19T03:47:53;3.90;;;2.03;;
76447;SDS011;65284;51.040;13.722;2023-11-19T03:50:19;3.58;;;1.90;;
76447;SDS011;65284;51.040;13.722;2023-11-19T03:52:47;4.60;;;2.15;;
76447;SDS011;65284;51.040;13.722;2023-11-19T03:55:13;4.18;;;2.00;;
76447;SDS011;65284;51.040;13.722;2023-11-19T03:57:40;3.65;;;1.83;;
76447;SDS011;65284;51.040;13.722;2023-11-19T04:00:07;4.00;;;2.00;;
76447;SDS011;65284;51.040;13.722;2023-11-19T04:02:37;3.53;;;1.83;;
76447;SDS011;65284;51.040;13.722;2023-11-19T04:05:03;4.07;;;2.13;;
76447;SDS011;65284;51.040;13.722;2023-11-19T04:07:31;4.43;;;2.15;;
76447;SDS011;65284;51.040;13.722;2023-11-19T04:09:58;4.40;;;1.90;;
76447;SDS011;65284;51.040;13.722;2023-11-19T04:12:25;5.13;;;2.35;;
76447;SDS011;65284;51.040;13.722;2023-11-19T04:14:52;4.90;;;2.53;;
76447;SDS011;65284;51.040;13.722;2023-11-19T04:17:21;4.88;;;2.53;;
76447;SDS011;65284;51.040;13.722;2023-11-19T04:19:49;5.55;;;2.38;;
76447;SDS011;65284;51.040;13.722;2023-11-19T04:22:15;4.93;;;2.60;;
76447;SDS011;65284;51.040;13.722;2023-11-19T04:24:42;4.97;;;2.58;;
76447;SDS011;65284;51.040;13.722;2023-11-19T04:27:10;5.93;;;2.78;;
76447;SDS011;65284;51.040;13.722;2023-11-19T04:29:36;6.32;;;2.58;;
76447;SDS011;65284;51.040;13.722;2023-11-19T04:32:03;6.18;;;3.33;;
76447;SDS011;65284;51.040;13.722;2023-11-19T04:34:31;6.95;;;3.15;;
76447;SDS011;65284;51.040;13.722;2023-11-19T04:36:58;6.57;;;3.13;;
76447;SDS011;65284;51.040;13.722;2023-11-19T04:39:38;6.03;;;3.00;;
76447;SDS011;65284;51.040;13.722;2023-11-19T04:42:05;7.10;;;4.00;;
76447;SDS011;65284;51.040;13.722;2023-11-19T04:44:33;7.25;;;3.83;;
76447;SDS011;65284;51.040;13.722;2023-11-19T04:46:59;8.90;;;4.28;;
76447;SDS011;65284;51.040;13.722;2023-11-19T04:49:26;7.63;;;4.38;;
76447;SDS011;65284;51.040;13.722;2023-11-19T04:51:53;8.30;;;4.25;;
76447;SDS011;65284;51.040;13.722;2023-11-19T04:54:20;7.53;;;3.72;;
76447;SDS011;65284;51.040;13.722;2023-11-19T04:56:47;7.18;;;3.67;;
76447;SDS011;65284;51.040;13.722;2023-11-19T04:59:13;7.40;;;4.00;;
76447;SDS011;65284;51.040;13.722;2023-11-19T05:01:40;7.45;;;3.90;;
76447;SDS011;65284;51.040;13.722;2023-11-19T05:04:07;7.88;;;4.00;;
76447;SDS011;65284;51.040;13.722;2023-11-19T05:06:34;8.18;;;4.38;;
76447;SDS011;65284;51.040;13.722;2023-11-19T05:09:01;7.50;;;4.18;;
76447;SDS011;65284;51.040;13.722;2023-11-19T05:11:32;7.53;;;3.92;;
76447;SDS011;65284;51.040;13.722;2023-11-19T05:13:59;8.52;;;4.32;;
76447;SDS011;65284;51.040;13.722;2023-11-19T05:16:26;8.65;;;4.10;;
76447;SDS011;65284;51.040;13.722;2023-11-19T05:18:52;8.43;;;4.28;;
76447;SDS011;65284;51.040;13.722;2023-11-19T05:21:19;9.25;;;5.05;;
76447;SDS011;65284;51.040;13.722;2023-11-19T05:23:45;7.70;;;4.30;;
76447;SDS011;65284;51.040;13.722;2023-11-19T05:26:19;7.95;;;4.57;;
76447;SDS011;65284;51.040;13.722;2023-11-19T05:28:47;9.30;;;4.50;;
76447;SDS011;65284;51.040;13.722;2023-11-19T05:31:14;9.75;;;4.63;;
76447;SDS011;65284;51.040;13.722;2023-11-19T05:33:42;11.65;;;5.70;;
76447;SDS011;65284;51.040;13.722;2023-11-19T05:36:10;9.00;;;5.00;;
76447;SDS011;65284;51.040;13.722;2023-11-19T05:38:37;9.80;;;4.88;;
76447;SDS011;65284;51.040;13.722;2023-11-19T05:41:04;9.65;;;5.00;;
76447;SDS011;65284;51.040;13.722;2023-11-19T05:43:31;11.68;;;5.70;;
76447;SDS011;65284;51.040;13.722;2023-11-19T05:45:58;9.55;;;5.30;;
76447;SDS011;65284;51.040;13.722;2023-11-19T05:48:25;8.80;;;4.65;;
76447;SDS011;65284;51.040;13.722;2023-11-19T05:50:53;8.70;;;4.80;;
76447;SDS011;65284;51.040;13.722;2023-11-19T05:53:19;8.70;;;5.05;;
76447;SDS011;65284;51.040;13.722;2023-11-19T05:55:46;9.00;;;4.90;;
76447;SDS011;65284;51.040;13.722;2023-11-19T05:58:22;10.27;;;5.28;;
76447;SDS011;65284;51.040;13.722;2023-11-19T06:00:50;9.68;;;5.32;;
76447;SDS011;65284;51.040;13.722;2023-11-19T06:03:17;10.50;;;5.80;;
76447;SDS011;65284;51.040;13.722;2023-11-19T06:05:44;9.38;;;5.43;;
76447;SDS011;65284;51.040;13.722;2023-11-19T06:08:12;11.80;;;6.00;;
76447;SDS011;65284;51.040;13.722;2023-11-19T06:10:40;11.80;;;6.60;;
76447;SDS011;65284;51.040;13.722;2023-11-19T06:13:07;11.23;;;6.13;;
76447;SDS011;65284;51.040;13.722;2023-11-19T06:15:36;11.38;;;6.20;;
76447;SDS011;65284;51.040;13.722;2023-11-19T06:18:02;11.90;;;6.07;;
76447;SDS011;65284;51.040;13.722;2023-11-19T06:20:30;12.70;;;6.43;;
76447;SDS011;65284;51.040;13.722;2023-11-19T06:23:08;11.73;;;6.63;;
76447;SDS011;65284;51.040;13.722;2023-11-19T06:25:35;12.50;;;6.75;;
76447;SDS011;65284;51.040;13.722;2023-11-19T06:28:02;10.93;;;5.95;;
76447;SDS011;65284;51.040;13.722;2023-11-19T06:30:29;15.15;;;7.13;;
76447;SDS011;65284;51.040;13.722;2023-11-19T06:32:58;12.18;;;6.55;;
76447;SDS011;65284;51.040;13.722;2023-11-19T06:35:26;12.48;;;6.20;;
76447;SDS011;65284;51.040;13.722;2023-11-19T06:37:52;10.82;;;5.93;;
76447;SDS011;65284;51.040;13.722;2023-11-19T06:40:19;12.52;;;6.30;;
76447;SDS011;65284;51.040;13.722;2023-11-19T06:42:46;10.77;;;5.60;;
76447;SDS011;65284;51.040;13.722;2023-11-19T06:45:12;12.13;;;6.00;;
76447;SDS011;65284;51.040;13.722;2023-11-19T06:47:38;11.75;;;5.70;;
76447;SDS011;65284;51.040;13.722;2023-11-19T06:50:05;10.20;;;5.47;;
76447;SDS011;65284;51.040;13.722;2023-11-19T06:52:33;11.95;;;5.70;;
76447;SDS011;65284;51.040;13.722;2023-11-19T06:54:59;10.90;;;5.50;;
76447;SDS011;65284;51.040;13.722;2023-11-19T06:57:29;10.02;;;5.20;;
76447;SDS011;65284;51.040;13.722;2023-11-19T06:59:58;9.60;;;4.97;;
76447;SDS011;65284;51.040;13.722;2023-11-19T07:02:25;8.63;;;4.82;;
76447;SDS011;65284;51.040;13.722;2023-11-19T07:04:53;9.10;;;4.75;;
76447;SDS011;65284;51.040;13.722;2023-11-19T07:07:20;9.77;;;4.90;;
76447;SDS011;65284;51.040;13.722;2023-11-19T07:09:47;12.63;;;6.45;;
76447;SDS011;65284;51.040;13.722;2023-11-19T07:12:14;9.15;;;4.78;;
76447;SDS011;65284;51.040;13.722;2023-11-19T07:14:40;11.43;;;4.95;;
76447;SDS011;65284;51.040;13.722;2023-11-19T07:17:08;10.70;;;4.45;;
76447;SDS011;65284;51.040;13.722;2023-11-19T07:19:37;8.95;;;4.80;;
76447;SDS011;65284;51.040;13.722;2023-11-19T07:22:05;8.98;;;4.70;;
76447;SDS011;65284;51.040;13.722;2023-11-19T07:24:32;10.27;;;4.70;;
76447;SDS011;65284;51.040;13.722;2023-11-19T07:26:59;8.27;;;4.03;;
76447;SDS011;65284;51.040;13.722;2023-11-19T07:29:25;9.02;;;4.47;;
76447;SDS011;65284;51.040;13.722;2023-11-19T07:31:55;8.65;;;4.43;;
76447;SDS011;65284;51.040;13.722;2023-11-19T07:34:23;7.72;;;3.83;;
76447;SDS011;65284;51.040;13.722;2023-11-19T07:36:51;7.50;;;4.00;;
76447;SDS011;65284;51.040;13.722;2023-11-19T07:39:17;10.10;;;5.32;;
76447;SDS011;65284;51.040;13.722;2023-11-19T07:41:43;8.80;;;4.28;;
76447;SDS011;65284;51.040;13.722;2023-11-19T07:44:10;10.85;;;4.68;;
76447;SDS011;65284;51.040;13.722;2023-11-19T07:46:37;10.77;;;4.30;;
76447;SDS011;65284;51.040;13.722;2023-11-19T07:49:04;8.65;;;4.40;;
76447;SDS011;65284;51.040;13.722;2023-11-19T07:51:30;9.23;;;4.47;;
76447;SDS011;65284;51.040;13.722;2023-11-19T07:53:56;11.32;;;5.18;;
76447;SDS011;65284;51.040;13.722;2023-11-19T07:56:23;9.77;;;5.07;;
76447;SDS011;65284;51.040;13.722;2023-11-19T07:58:49;8.02;;;4.15;;
76447;SDS011;65284;51.040;13.722;2023-11-19T08:01:16;8.23;;;4.60;;
76447;SDS011;65284;51.040;13.722;2023-11-19T08:03:42;12.25;;;6.03;;
76447;SDS011;65284;51.040;13.722;2023-11-19T08:06:24;11.55;;;5.00;;
76447;SDS011;65284;51.040;13.722;2023-11-19T08:08:51;9.00;;;4.53;;
76447;SDS011;65284;51.040;13.722;2023-11-19T08:11:18;9.27;;;4.78;;
76447;SDS011;65284;51.040;13.722;2023-11-19T08:13:46;9.77;;;5.00;;
76447;SDS011;65284;51.040;13.722;2023-11-19T08:16:12;7.65;;;4.22;;
76447;SDS011;65284;51.040;13.722;2023-11-19T08:18:41;7.70;;;3.70;;
76447;SDS011;65284;51.040;13.722;2023-11-19T08:21:10;7.68;;;3.55;;
76447;SDS011;65284;51.040;13.722;2023-11-19T08:23:36;10.80;;;5.25;;
76447;SDS011;65284;51.040;13.722;2023-11-19T08:26:04;8.73;;;4.90;;
76447;SDS011;65284;51.040;13.722;2023-11-19T08:28:32;8.65;;;4.47;;
76447;SDS011;65284;51.040;13.722;2023-11-19T08:31:00;7.93;;;4.22;;
76447;SDS011;65284;51.040;13.722;2023-11-19T08:33:27;8.90;;;4.40;;
76447;SDS011;65284;51.040;13.722;2023-11-19T08:35:54;7.20;;;3.72;;
76447;SDS011;65284;51.040;13.722;2023-11-19T08:38:20;8.30;;;4.00;;
76447;SDS011;65284;51.040;13.722;2023-11-19T08:40:50;8.95;;;4.18;;
76447;SDS011;65284;51.040;13.722;2023-11-19T08:43:18;11.73;;;5.50;;
76447;SDS011;65284;51.040;13.722;2023-11-19T08:45:44;10.52;;;5.00;;
76447;SDS011;65284;51.040;13.722;2023-11-19T08:48:11;7.75;;;4.32;;
76447;SDS011;65284;51.040;13.722;2023-11-19T08:50:37;7.10;;;3.90;;
76447;SDS011;65284;51.040;13.722;2023-11-19T08:53:04;7.80;;;3.92;;
76447;SDS011;65284;51.040;13.722;2023-11-19T08:55:33;7.72;;;3.65;;
76447;SDS011;65284;51.040;13.722;2023-11-19T08:57:59;6.30;;;3.20;;
76447;SDS011;65284;51.040;13.722;2023-11-19T09:00:26;5.70;;;2.97;;
76447;SDS011;65284;51.040;13.722;2023-11-19T09:02:52;4.90;;;2.40;;
76447;SDS011;65284;51.040;13.722;2023-11-19T09:05:19;5.43;;;3.00;;
76447;SDS011;65284;51.040;13.722;2023-11-19T09:07:45;5.00;;;1.90;;
76447;SDS011;65284;51.040;13.722;2023-11-19T09:10:12;6.25;;;1.90;;
76447;SDS011;65284;51.040;13.722;2023-11-19T09:12:38;5.07;;;1.20;;
76447;SDS011;65284;51.040;13.722;2023-11-19T09:15:05;4.88;;;1.05;;
76447;SDS011;65284;51.040;13.722;2023-11-19T09:17:32;2.30;;;0.75;;
76447;SDS011;65284;51.040;13.722;2023-11-19T09:19:59;3.25;;;0.55;;
76447;SDS011;65284;51.040;13.722;2023-11-19T09:22:26;2.63;;;0.60;;
76447;SDS011;65284;51.040;13.722;2023-11-19T09:24:52;3.00;;;0.60;;
76447;SDS011;65284;51.040;13.722;2023-11-19T09:27:19;2.38;;;0.50;;
76447;SDS011;65284;51.040;13.722;2023-11-19T09:29:45;1.95;;;0.50;;
76447;SDS011;65284;51.040;13.722;2023-11-19T09:32:12;2.97;;;0.73;;
76447;SDS011;65284;51.040;13.722;2023-11-19T09:34:39;3.45;;;0.55;;
76447;SDS011;65284;51.040;13.722;2023-11-19T09:37:06;4.18;;;0.60;;
76447;SDS011;65284;51.040;13.722;2023-11-19T09:39:47;3.08;;;0.70;;
76447;SDS011;65284;51.040;13.722;2023-11-19T09:42:13;2.97;;;0.77;;
76447;SDS011;65284;51.040;13.722;2023-11-19T09:44:40;4.53;;;0.60;;
76447;SDS011;65284;51.040;13.722;2023-11-19T09:47:08;2.67;;;0.65;;
76447;SDS011;65284;51.040;13.722;2023-11-19T09:49:37;3.42;;;0.70;;
76447;SDS011;65284;51.040;13.722;2023-11-19T09:52:05;2.20;;;0.50;;
76447;SDS011;65284;51.040;13.722;2023-11-19T09:54:31;2.80;;;0.60;;
76447;SDS011;65284;51.040;13.722;2023-11-19T09:56:58;1.95;;;0.50;;
76447;SDS011;65284;51.040;13.722;2023-11-19T09:59:29;1.88;;;0.50;;
76447;SDS011;65284;51.040;13.722;2023-11-19T10:01:56;3.08;;;0.60;;
76447;SDS011;65284;51.040;13.722;2023-11-19T10:04:23;3.78;;;0.60;;
76447;SDS011;65284;51.040;13.722;2023-11-19T10:06:51;3.67;;;0.60;;
76447;SDS011;65284;51.040;13.722;2023-11-19T10:09:18;3.63;;;0.55;;
76447;SDS011;65284;51.040;13.722;2023-11-19T10:11:45;2.95;;;0.70;;
76447;SDS011;65284;51.040;13.722;2023-11-19T10:14:11;2.05;;;0.70;;
76447;SDS011;65284;51.040;13.722;2023-11-19T10:16:40;3.45;;;0.60;;
76447;SDS011;65284;51.040;13.722;2023-11-19T10:19:07;2.55;;;0.52;;
76447;SDS011;65284;51.040;13.722;2023-11-19T10:21:33;3.30;;;0.50;;
76447;SDS011;65284;51.040;13.722;2023-11-19T10:24:00;2.28;;;0.70;;
76447;SDS011;65284;51.040;13.722;2023-11-19T10:26:27;4.13;;;0.77;;
76447;SDS011;65284;51.040;13.722;2023-11-19T10:28:55;2.53;;;0.60;;
76447;SDS011;65284;51.040;13.722;2023-11-19T10:31:22;3.42;;;0.70;;
76447;SDS011;65284;51.040;13.722;2023-11-19T10:33:52;2.50;;;0.60;;
76447;SDS011;65284;51.040;13.722;2023-11-19T10:36:20;3.72;;;0.90;;
76447;SDS011;65284;51.040;13.722;2023-11-19T10:38:53;2.53;;;0.80;;
76447;SDS011;65284;51.040;13.722;2023-11-19T10:41:27;2.17;;;0.60;;
76447;SDS011;65284;51.040;13.722;2023-11-19T10:44:00;5.05;;;0.80;;
76447;SDS011;65284;51.040;13.722;2023-11-19T10:46:39;2.33;;;0.55;;
76447;SDS011;65284;51.040;13.722;2023-11-19T10:49:07;2.38;;;0.60;;
76447;SDS011;65284;51.040;13.722;2023-11-19T10:51:34;1.90;;;0.47;;
76447;SDS011;65284;51.040;13.722;2023-11-19T10:54:04;2.95;;;0.60;;
76447;SDS011;65284;51.040;13.722;2023-11-19T10:56:33;2.55;;;0.65;;
76447;SDS011;65284;51.040;13.722;2023-11-19T10:59:00;2.88;;;0.90;;
76447;SDS011;65284;51.040;13.722;2023-11-19T11:01:32;1.75;;;0.60;;
76447;SDS011;65284;51.040;13.722;2023-11-19T11:04:04;2.63;;;0.50;;
76447;SDS011;65284;51.040;13.722;2023-11-19T11:06:32;1.58;;;0.50;;
76447;SDS011;65284;51.040;13.722;2023-11-19T11:09:00;1.40;;;0.40;;
76447;SDS011;65284;51.040;13.722;2023-11-19T11:11:27;2.08;;;0.70;;
76447;SDS011;65284;51.040;13.722;2023-11-19T11:13:53;3.38;;;0.70;;
76447;SDS011;65284;51.040;13.722;2023-11-19T11:16:22;1.80;;;0.50;;
76447;SDS011;65284;51.040;13.722;2023-11-19T11:18:50;1.88;;;0.40;;
76447;SDS011;65284;51.040;13.722;2023-11-19T11:21:20;3.90;;;0.60;;
76447;SDS011;65284;51.040;13.722;2023-11-19T11:26:39;2.70;;;0.63;;
76447;SDS011;65284;51.040;13.722;2023-11-19T11:35:50;5.40;;;0.95;;
76447;SDS011;65284;51.040;13.722;2023-11-19T11:38:28;4.93;;;1.00;;
76447;SDS011;65284;51.040;13.722;2023-11-19T11:41:15;3.60;;;0.50;;
76447;SDS011;65284;51.040;13.722;2023-11-19T11:49:01;3.72;;;0.82;;
76447;SDS011;65284;51.040;13.722;2023-11-19T11:54:11;5.18;;;0.90;;
76447;SDS011;65284;51.040;13.722;2023-11-19T11:57:02;6.13;;;0.70;;
76447;SDS011;65284;51.040;13.722;2023-11-19T12:02:09;4.70;;;0.77;;
76447;SDS011;65284;51.040;13.722;2023-11-19T12:04:36;3.45;;;0.60;;
76447;SDS011;65284;51.040;13.722;2023-11-19T12:09:39;4.38;;;0.75;;
76447;SDS011;65284;51.040;13.722;2023-11-19T12:12:11;3.58;;;0.70;;
76447;SDS011;65284;51.040;13.722;2023-11-19T12:14:59;3.05;;;0.70;;
76447;SDS011;65284;51.040;13.722;2023-11-19T12:20:00;5.45;;;0.82;;
76447;SDS011;65284;51.040;13.722;2023-11-19T12:22:27;6.80;;;1.00;;
76447;SDS011;65284;51.040;13.722;2023-11-19T12:24:54;5.45;;;0.88;;
76447;SDS011;65284;51.040;13.722;2023-11-19T12:27:21;8.15;;;0.70;;
76447;SDS011;65284;51.040;13.722;2023-11-19T12:29:50;6.75;;;1.00;;
76447;SDS011;65284;51.040;13.722;2023-11-19T12:32:17;7.50;;;0.80;;
76447;SDS011;65284;51.040;13.722;2023-11-19T12:34:44;6.38;;;1.00;;
76447;SDS011;65284;51.040;13.722;2023-11-19T12:37:11;4.65;;;1.00;;
76447;SDS011;65284;51.040;13.722;2023-11-19T12:39:38;5.63;;;1.30;;
76447;SDS011;65284;51.040;13.722;2023-11-19T12:42:04;5.55;;;1.10;;
76447;SDS011;65284;51.040;13.722;2023-11-19T12:44:31;5.28;;;1.23;;
76447;SDS011;65284;51.040;13.722;2023-11-19T12:47:00;6.25;;;0.90;;
76447;SDS011;65284;51.040;13.722;2023-11-19T12:49:27;5.53;;;0.82;;
76447;SDS011;65284;51.040;13.722;2023-11-19T12:51:54;8.00;;;1.10;;
76447;SDS011;65284;51.040;13.722;2023-11-19T12:54:31;6.72;;;1.15;;
76447;SDS011;65284;51.040;13.722;2023-11-19T12:57:02;8.05;;;1.02;;
76447;SDS011;65284;51.040;13.722;2023-11-19T12:59:29;6.10;;;1.20;;
76447;SDS011;65284;51.040;13.722;2023-11-19T13:01:56;8.45;;;1.05;;
76447;SDS011;65284;51.040;13.722;2023-11-19T13:04:27;7.22;;;1.00;;
76447;SDS011;65284;51.040;13.722;2023-11-19T13:06:54;8.18;;;0.95;;
76447;SDS011;65284;51.040;13.722;2023-11-19T13:09:25;6.63;;;1.02;;
76447;SDS011;65284;51.040;13.722;2023-11-19T13:11:53;8.07;;;1.10;;
76447;SDS011;65284;51.040;13.722;2023-11-19T13:14:20;5.40;;;1.60;;
76447;SDS011;65284;51.040;13.722;2023-11-19T13:16:47;8.27;;;1.00;;
76447;SDS011;65284;51.040;13.722;2023-11-19T13:19:14;4.88;;;1.00;;
76447;SDS011;65284;51.040;13.722;2023-11-19T13:21:45;8.32;;;1.27;;
76447;SDS011;65284;51.040;13.722;2023-11-19T13:24:15;6.78;;;1.23;;
76447;SDS011;65284;51.040;13.722;2023-11-19T13:26:41;9.38;;;1.13;;
76447;SDS011;65284;51.040;13.722;2023-11-19T13:29:08;9.95;;;1.30;;
76447;SDS011;65284;51.040;13.722;2023-11-19T13:31:36;7.18;;;1.23;;
76447;SDS011;65284;51.040;13.722;2023-11-19T13:34:03;7.55;;;1.10;;
76447;SDS011;65284;51.040;13.722;2023-11-19T13:36:30;10.85;;;1.42;;
76447;SDS011;65284;51.040;13.722;2023-11-19T13:38:57;5.70;;;1.25;;
76447;SDS011;65284;51.040;13.722;2023-11-19T13:41:26;8.35;;;1.30;;
76447;SDS011;65284;51.040;13.722;2023-11-19T13:43:52;8.20;;;1.20;;
76447;SDS011;65284;51.040;13.722;2023-11-19T13:46:20;6.85;;;1.05;;
76447;SDS011;65284;51.040;13.722;2023-11-19T13:48:46;12.10;;;1.20;;
76447;SDS011;65284;51.040;13.722;2023-11-19T13:51:14;7.38;;;1.10;;
76447;SDS011;65284;51.040;13.722;2023-11-19T13:53:41;8.57;;;1.25;;
76447;SDS011;65284;51.040;13.722;2023-11-19T13:56:12;7.85;;;1.10;;
76447;SDS011;65284;51.040;13.722;2023-11-19T13:58:38;5.97;;;0.80;;
76447;SDS011;65284;51.040;13.722;2023-11-19T14:01:06;7.60;;;1.00;;
76447;SDS011;65284;51.040;13.722;2023-11-19T14:03:33;7.75;;;1.13;;
76447;SDS011;65284;51.040;13.722;2023-11-19T14:06:00;9.80;;;1.20;;
76447;SDS011;65284;51.040;13.722;2023-11-19T14:08:27;9.90;;;1.20;;
76447;SDS011;65284;51.040;13.722;2023-11-19T14:10:53;10.15;;;1.67;;
76447;SDS011;65284;51.040;13.722;2023-11-19T14:13:22;10.63;;;1.30;;
76447;SDS011;65284;51.040;13.722;2023-11-19T14:15:49;7.88;;;1.30;;
76447;SDS011;65284;51.040;13.722;2023-11-19T14:18:17;6.03;;;1.20;;
76447;SDS011;65284;51.040;13.722;2023-11-19T14:20:44;8.98;;;1.60;;
76447;SDS011;65284;51.040;13.722;2023-11-19T14:23:11;7.20;;;1.77;;
76447;SDS011;65284;51.040;13.722;2023-11-19T14:25:37;11.18;;;1.30;;
76447;SDS011;65284;51.040;13.722;2023-11-19T14:28:04;10.40;;;1.52;;
76447;SDS011;65284;51.040;13.722;2023-11-19T14:30:32;6.57;;;0.95;;
76447;SDS011;65284;51.040;13.722;2023-11-19T14:33:00;9.30;;;1.40;;
76447;SDS011;65284;51.040;13.722;2023-11-19T14:35:26;5.13;;;1.00;;
76447;SDS011;65284;51.040;13.722;2023-11-19T14:37:53;9.02;;;1.27;;
76447;SDS011;65284;51.040;13.722;2023-11-19T14:40:19;7.88;;;1.10;;
76447;SDS011;65284;51.040;13.722;2023-11-19T14:42:46;8.25;;;1.05;;
76447;SDS011;65284;51.040;13.722;2023-11-19T14:45:13;9.23;;;1.38;;
76447;SDS011;65284;51.040;13.722;2023-11-19T14:47:39;6.80;;;1.10;;
76447;SDS011;65284;51.040;13.722;2023-11-19T14:50:06;7.07;;;1.13;;
76447;SDS011;65284;51.040;13.722;2023-11-19T14:52:34;8.90;;;1.45;;
76447;SDS011;65284;51.040;13.722;2023-11-19T14:55:02;7.20;;;1.20;;
76447;SDS011;65284;51.040;13.722;2023-11-19T14:57:29;9.60;;;1.40;;
76447;SDS011;65284;51.040;13.722;2023-11-19T14:59:55;8.77;;;1.63;;